Time;durP1;ratioP1;P1;durP2;ratioP2;P2;SDS_P1;SDS_P2;PMS_P1;PMS_P2;Temp;Humidity;BMP_temperature;BMP_pressure;BME280_temperature;BME280_humidity;BME280_pressure;Samples;Min_cycle;Max_cycle;Signal;HPM_P1;HPM_P2
2023/01/26 00:00:58;;;;;;;36.83;24.83;;;-0.60;99.90;-1.40;101080;;;;562972;251;24110;-77
2023/01/26 00:03:25;;;;;;;33.90;22.93;;;-0.60;99.90;-1.40;101078;;;;562785;251;24090;-80
2023/01/26 00:05:53;;;;;;;33.90;22.77;;;-0.60;99.90;-1.40;101074;;;;562822;251;24079;-80
2023/01/26 00:08:22;;;;;;;28.33;20.73;;;-0.60;99.90;-1.40;101065;;;;562844;251;24109;-80
2023/01/26 00:10:50;;;;;;;30.23;21.37;;;-0.60;99.90;-1.40;101054;;;;562775;251;24108;-80
2023/01/26 00:13:21;;;;;;;29.00;20.10;;;-0.60;99.90;-1.40;101047;;;;562821;251;24146;-79
2023/01/26 00:15:46;;;;;;;30.43;20.53;;;-0.60;99.90;-1.40;101045;;;;557837;251;24073;-81
2023/01/26 00:18:14;;;;;;;28.67;21.17;;;-0.60;99.90;-1.40;101057;;;;571053;249;24098;-78
2023/01/26 00:20:42;;;;;;;27.40;19.40;;;-0.60;99.90;-1.40;101057;;;;562507;251;24084;-79
2023/01/26 00:23:10;;;;;;;27.67;20.27;;;-0.60;99.90;-1.30;101063;;;;562347;251;24091;-78
2023/01/26 00:25:42;;;;;;;31.17;20.27;;;-0.50;99.90;-1.30;101061;;;;562498;251;24084;-79
2023/01/26 00:28:06;;;;;;;29.43;20.07;;;-0.50;99.90;-1.30;101054;;;;562602;251;24101;-79
2023/01/26 00:30:34;;;;;;;29.93;20.20;;;-0.50;99.90;-1.30;101062;;;;562950;251;24074;-80
2023/01/26 00:33:02;;;;;;;30.00;20.53;;;-0.50;99.90;-1.30;101049;;;;562827;251;24104;-80
2023/01/26 00:35:30;;;;;;;30.17;22.27;;;-0.50;99.90;-1.30;101052;;;;562857;251;24108;-79
2023/01/26 00:37:58;;;;;;;30.87;21.30;;;-0.50;99.90;-1.30;101048;;;;563913;250;24081;-82
2023/01/26 00:40:26;;;;;;;30.37;20.30;;;-0.50;99.90;-1.40;101051;;;;563788;250;24089;-83
2023/01/26 00:42:54;;;;;;;31.23;19.47;;;-0.50;99.90;-1.40;101040;;;;563592;251;24091;-81
2023/01/26 00:45:22;;;;;;;30.87;21.00;;;-0.60;99.90;-1.40;101039;;;;563602;251;24066;-83
2023/01/26 00:47:51;;;;;;;30.60;21.03;;;-0.60;99.90;-1.40;101050;;;;563303;251;25125;-79
2023/01/26 00:50:20;;;;;;;30.43;21.77;;;-0.60;99.90;-1.40;101052;;;;563332;251;24116;-81
2023/01/26 00:52:48;;;;;;;27.93;20.43;;;-0.60;99.90;-1.40;101040;;;;563290;251;24108;-78
2023/01/26 00:55:17;;;;;;;30.77;20.63;;;-0.50;99.90;-1.30;101027;;;;563167;251;24083;-80
2023/01/26 00:57:46;;;;;;;27.47;19.33;;;-0.50;99.90;-1.30;101019;;;;562894;251;24130;-78
2023/01/26 01:00:18;;;;;;;28.37;19.40;;;-0.50;99.90;-1.30;101034;;;;563052;250;24129;-82
2023/01/26 01:02:46;;;;;;;26.40;18.63;;;-0.50;99.90;-1.30;101013;;;;563177;251;24162;-83
2023/01/26 01:05:12;;;;;;;28.73;19.13;;;-0.50;99.90;-1.30;101009;;;;562819;245;24109;-84
2023/01/26 01:07:40;;;;;;;27.67;18.87;;;-0.50;99.90;-1.30;101013;;;;563140;251;25146;-84
2023/01/26 01:10:09;;;;;;;26.93;18.90;;;-0.50;99.90;-1.30;101005;;;;563048;251;25149;-81
2023/01/26 01:12:36;;;;;;;29.00;19.73;;;-0.50;99.90;-1.30;101001;;;;572409;251;24086;-77
2023/01/26 01:15:08;;;;;;;30.93;19.20;;;-0.50;99.90;-1.30;100988;;;;562819;251;24075;-80
2023/01/26 01:17:36;;;;;;;26.57;19.23;;;-0.50;99.90;-1.30;100992;;;;562914;251;24082;-78
2023/01/26 01:20:00;;;;;;;25.87;18.87;;;-0.50;99.90;-1.30;100994;;;;562305;251;24130;-79
2023/01/26 01:22:29;;;;;;;32.40;19.63;;;-0.50;99.90;-1.30;100998;;;;562585;250;24103;-79
2023/01/26 01:24:58;;;;;;;31.60;19.97;;;-0.50;99.90;-1.30;100999;;;;562506;251;24080;-77
2023/01/26 01:27:26;;;;;;;26.20;19.10;;;-0.50;99.90;-1.30;100996;;;;562367;250;24110;-78
2023/01/26 01:29:55;;;;;;;28.17;19.10;;;-0.50;99.90;-1.30;100992;;;;562847;251;24087;-83
2023/01/26 01:32:24;;;;;;;26.80;20.33;;;-0.50;99.90;-1.30;100993;;;;562940;249;24088;-84
2023/01/26 01:34:52;;;;;;;26.20;19.07;;;-0.50;99.90;-1.30;100987;;;;562763;251;24185;-84
2023/01/26 01:37:20;;;;;;;29.13;19.10;;;-0.50;99.90;-1.30;100992;;;;562794;251;24184;-79
2023/01/26 01:39:48;;;;;;;31.17;17.73;;;-0.50;99.90;-1.30;100998;;;;562788;251;24073;-79
2023/01/26 01:42:16;;;;;;;27.60;18.33;;;-0.50;99.90;-1.30;100990;;;;562779;251;24117;-78
2023/01/26 01:44:44;;;;;;;28.03;19.10;;;-0.50;99.90;-1.30;100989;;;;562866;251;24071;-79
2023/01/26 01:47:15;;;;;;;28.20;19.00;;;-0.50;99.90;-1.30;100989;;;;562726;245;24090;-79
2023/01/26 01:49:46;;;;;;;28.73;17.97;;;-0.50;99.90;-1.30;100994;;;;563981;250;24146;-77
2023/01/26 01:52:27;;;;;;;25.93;18.63;;;-0.50;99.90;-1.30;100986;;;;562575;251;24083;-81
2023/01/26 01:54:51;;;;;;;25.73;18.87;;;-0.50;99.90;-1.30;100995;;;;563106;251;24099;-80
2023/01/26 01:57:27;;;;;;;29.37;18.30;;;-0.50;99.90;-1.30;100984;;;;563461;251;24077;-80
2023/01/26 01:59:49;;;;;;;27.60;17.93;;;-0.50;99.90;-1.30;100984;;;;563098;251;24098;-81
2023/01/26 02:02:17;;;;;;;27.00;19.40;;;-0.50;99.90;-1.30;100981;;;;563068;251;24098;-81
2023/01/26 02:04:45;;;;;;;26.33;18.53;;;-0.50;99.90;-1.30;100972;;;;563304;251;24106;-84
2023/01/26 02:07:13;;;;;;;31.57;17.80;;;-0.50;99.90;-1.30;100967;;;;563170;251;24158;-80
2023/01/26 02:12:27;;;;;;;27.60;18.93;;;-0.50;99.90;-1.30;100968;;;;563094;251;24083;-78
2023/01/26 02:14:55;;;;;;;26.60;18.73;;;-0.50;99.90;-1.20;100955;;;;563083;251;24113;-77
2023/01/26 02:17:26;;;;;;;27.80;18.60;;;-0.40;99.90;-1.20;100954;;;;563074;251;25163;-80
2023/01/26 02:20:13;;;;;;;28.30;19.13;;;-0.40;99.90;-1.20;100950;;;;562859;251;24150;-82
2023/01/26 02:22:41;;;;;;;28.27;18.27;;;-0.40;99.90;-1.20;100962;;;;563368;251;24135;-79
2023/01/26 02:25:26;;;;;;;28.20;17.97;;;-0.40;99.90;-1.20;100948;;;;563416;250;24149;-79
2023/01/26 02:27:55;;;;;;;26.43;18.33;;;-0.40;99.90;-1.20;100953;;;;571505;251;24183;-77
2023/01/26 02:30:27;;;;;;;26.43;18.03;;;-0.40;99.90;-1.20;100946;;;;562507;251;24092;-78
2023/01/26 02:32:52;;;;;;;27.43;18.10;;;-0.40;99.90;-1.20;100946;;;;562653;251;24125;-79
2023/01/26 02:35:21;;;;;;;28.97;18.00;;;-0.40;99.90;-1.20;100933;;;;562567;251;24124;-82
2023/01/26 02:37:50;;;;;;;29.00;18.90;;;-0.30;99.90;-1.20;100926;;;;562425;251;24080;-83
2023/01/26 02:40:25;;;;;;;27.70;18.07;;;-0.40;99.90;-1.20;100934;;;;570258;250;24155;-81
2023/01/26 02:42:53;;;;;;;27.13;17.63;;;-0.40;99.90;-1.20;100928;;;;570270;249;24080;-82
2023/01/26 02:45:24;;;;;;;27.23;17.87;;;-0.40;99.90;-1.20;100930;;;;572000;249;24136;-78
2023/01/26 02:47:48;;;;;;;25.33;17.13;;;-0.40;99.90;-1.20;100930;;;;562294;250;24106;-83
2023/01/26 02:50:20;;;;;;;26.80;19.47;;;-0.40;99.90;-1.20;100928;;;;562534;251;24087;-79
2023/01/26 02:52:44;;;;;;;28.03;19.20;;;-0.40;99.90;-1.20;100923;;;;562032;251;24088;-82
2023/01/26 02:55:21;;;;;;;27.57;19.60;;;-0.40;99.90;-1.20;100926;;;;562428;251;24092;-82
2023/01/26 02:57:49;;;;;;;28.63;19.27;;;-0.40;99.90;-1.20;100910;;;;562446;251;24102;-81
2023/01/26 03:00:21;;;;;;;25.53;17.20;;;-0.40;99.90;-1.20;100906;;;;563088;250;24096;-83
2023/01/26 03:02:48;;;;;;;26.40;18.60;;;-0.40;99.90;-1.20;100917;;;;563662;251;24083;-82
2023/01/26 03:05:15;;;;;;;27.70;17.43;;;-0.40;99.90;-1.20;100913;;;;563219;251;24151;-80
2023/01/26 03:07:43;;;;;;;24.40;16.77;;;-0.40;99.90;-1.20;100928;;;;571797;249;24132;-80
2023/01/26 03:10:14;;;;;;;26.73;17.07;;;-0.40;99.90;-1.10;100923;;;;571448;246;24123;-82
2023/01/26 03:12:39;;;;;;;26.90;17.80;;;-0.40;99.90;-1.10;100914;;;;572231;249;24113;-83
2023/01/26 03:27:25;;;;;;;28.13;17.20;;;-0.40;99.90;-1.10;100921;;;;563288;251;24070;-83
2023/01/26 03:28:40;;;;;;;27.27;18.20;;;-0.40;99.90;-1.20;100919;;;;563082;251;25134;-83
2023/01/26 03:31:09;;;;;;;26.97;19.07;;;-0.40;99.90;-1.20;100919;;;;563084;251;25126;-84
2023/01/26 03:33:36;;;;;;;29.57;18.60;;;-0.40;99.90;-1.20;100921;;;;562791;250;24111;-83
2023/01/26 03:36:08;;;;;;;30.83;19.43;;;-0.40;99.90;-1.20;100922;;;;562549;251;24077;-84
2023/01/26 03:38:32;;;;;;;28.13;19.63;;;-0.40;99.90;-1.20;100928;;;;562603;251;24108;-84
2023/01/26 03:57:38;;;;;;;30.77;19.40;;;-0.40;99.90;-1.10;100905;;;;571425;249;24105;-83
2023/01/26 04:00:06;;;;;;;31.93;20.40;;;-0.30;99.90;-1.10;100907;;;;562516;251;24111;-84
2023/01/26 04:08:26;;;;;;;29.80;19.53;;;-0.30;99.90;-1.10;100902;;;;571283;251;24096;-84
2023/01/26 04:10:54;;;;;;;31.57;20.77;;;-0.30;99.90;-1.10;100901;;;;562499;251;24140;-83
2023/01/26 04:21:40;;;;;;;20.37;10.40;;;-0.30;99.90;-1.10;100892;;;;563135;251;24094;-82
2023/01/26 04:24:13;;;;;;;24.67;12.33;;;-0.30;99.90;-1.10;100882;;;;563080;251;24090;-80
2023/01/26 04:26:38;;;;;;;26.57;12.47;;;-0.40;99.90;-1.10;100892;;;;562896;251;24098;-83
2023/01/26 04:29:06;;;;;;;27.77;15.50;;;-0.30;99.90;-1.10;100898;;;;571791;246;24098;-84
2023/01/26 04:31:38;;;;;;;31.47;18.33;;;-0.30;99.90;-1.10;100883;;;;562768;250;24088;-79
2023/01/26 04:34:02;;;;;;;32.50;20.33;;;-0.30;99.90;-1.10;100878;;;;562663;251;24091;-83
2023/01/26 04:36:30;;;;;;;33.83;20.80;;;-0.30;99.90;-1.10;100880;;;;562812;251;24099;-83
2023/01/26 04:38:58;;;;;;;36.37;21.87;;;-0.30;99.90;-1.10;100867;;;;572203;249;24103;-84
2023/01/26 04:41:26;;;;;;;31.80;21.63;;;-0.30;99.90;-1.10;100863;;;;562628;251;24088;-81
2023/01/26 04:43:54;;;;;;;31.93;20.40;;;-0.30;99.90;-1.10;100867;;;;562696;251;24142;-80
2023/01/26 04:46:25;;;;;;;31.50;19.60;;;-0.30;99.90;-1.10;100877;;;;562617;250;24084;-79
2023/01/26 04:48:55;;;;;;;33.03;20.50;;;-0.30;99.90;-1.10;100874;;;;562262;251;24099;-83
2023/01/26 04:51:20;;;;;;;28.63;19.90;;;-0.30;99.90;-1.10;100874;;;;562321;245;24095;-79
2023/01/26 04:53:49;;;;;;;29.23;18.90;;;-0.30;99.90;-1.10;100876;;;;562515;251;24101;-78
2023/01/26 04:56:28;;;;;;;30.47;19.83;;;-0.30;99.90;-1.10;100877;;;;570975;249;24111;-80
2023/01/26 04:58:59;;;;;;;28.60;18.33;;;-0.30;99.90;-1.10;100879;;;;562608;251;24090;-78
2023/01/26 05:01:27;;;;;;;29.33;18.67;;;-0.40;99.90;-1.10;100882;;;;570868;244;24199;-79
2023/01/26 05:03:56;;;;;;;29.23;18.23;;;-0.40;99.90;-1.10;100885;;;;562352;251;24127;-79
2023/01/26 05:06:25;;;;;;;24.43;17.20;;;-0.40;99.90;-1.20;100883;;;;562339;251;24162;-78
2023/01/26 05:08:53;;;;;;;25.90;16.97;;;-0.40;99.90;-1.20;100875;;;;570136;250;24107;-78
2023/01/26 05:11:22;;;;;;;25.87;15.57;;;-0.40;99.90;-1.20;100883;;;;562520;251;24114;-81
2023/01/26 05:13:51;;;;;;;23.20;15.97;;;-0.40;99.90;-1.20;100881;;;;562395;251;24073;-78
2023/01/26 05:16:19;;;;;;;23.57;15.83;;;-0.40;99.90;-1.20;100870;;;;562533;250;24143;-78
2023/01/26 05:18:52;;;;;;;25.83;16.90;;;-0.40;99.90;-1.20;100870;;;;562449;251;24076;-82
2023/01/26 05:21:17;;;;;;;23.00;15.13;;;-0.40;99.90;-1.20;100869;;;;562156;251;24166;-79
2023/01/26 05:23:45;;;;;;;21.70;14.97;;;-0.40;99.90;-1.20;100873;;;;563373;250;24076;-77
2023/01/26 05:26:14;;;;;;;23.50;14.33;;;-0.40;99.90;-1.20;100875;;;;563510;251;24087;-77
2023/01/26 05:28:43;;;;;;;21.23;15.00;;;-0.40;99.90;-1.20;100878;;;;563328;251;24121;-77
2023/01/26 05:31:11;;;;;;;21.47;14.60;;;-0.40;99.90;-1.20;100884;;;;572053;249;24102;-80
2023/01/26 05:33:39;;;;;;;23.73;16.07;;;-0.40;99.90;-1.20;100882;;;;563071;251;24090;-83
2023/01/26 05:36:07;;;;;;;26.40;18.00;;;-0.40;99.90;-1.20;100881;;;;563013;251;24075;-83
2023/01/26 05:38:37;;;;;;;28.37;17.97;;;-0.40;99.90;-1.20;100882;;;;562793;251;24133;-84
2023/01/26 05:41:02;;;;;;;28.03;17.57;;;-0.50;99.90;-1.20;100879;;;;562799;251;24098;-83
2023/01/26 05:43:30;;;;;;;26.27;16.83;;;-0.40;99.90;-1.20;100884;;;;562692;251;24093;-83
2023/01/26 05:45:58;;;;;;;23.30;16.03;;;-0.50;99.90;-1.20;100883;;;;562853;251;24145;-79
2023/01/26 05:48:26;;;;;;;24.27;16.47;;;-0.50;99.90;-1.20;100890;;;;562827;251;24097;-83
2023/01/26 05:50:54;;;;;;;27.00;16.93;;;-0.50;99.90;-1.30;100890;;;;562675;251;24107;-81
2023/01/26 05:53:23;;;;;;;21.60;15.77;;;-0.50;99.90;-1.30;100890;;;;562707;251;24139;-83
2023/01/26 05:55:51;;;;;;;23.43;15.83;;;-0.50;99.90;-1.30;100893;;;;562660;251;24092;-81
2023/01/26 05:58:20;;;;;;;22.73;16.00;;;-0.50;99.90;-1.30;100893;;;;562797;251;24111;-84
2023/01/26 06:00:49;;;;;;;24.17;15.37;;;-0.60;99.90;-1.30;100900;;;;562453;250;24080;-75
2023/01/26 06:03:17;;;;;;;22.57;14.90;;;-0.50;99.90;-1.30;100893;;;;562599;251;24088;-82
2023/01/26 06:05:45;;;;;;;22.00;15.67;;;-0.50;99.90;-1.30;100895;;;;562602;251;24167;-83
2023/01/26 06:08:13;;;;;;;23.00;16.60;;;-0.50;99.90;-1.30;100888;;;;562002;251;24081;-82
2023/01/26 06:10:41;;;;;;;26.17;17.33;;;-0.50;99.90;-1.30;100885;;;;562506;251;24136;-80
2023/01/26 06:13:09;;;;;;;24.47;17.03;;;-0.50;99.90;-1.30;100896;;;;562465;251;24090;-78
2023/01/26 06:15:38;;;;;;;27.93;17.07;;;-0.50;99.90;-1.30;100884;;;;562523;245;24159;-79
2023/01/26 06:18:06;;;;;;;28.00;17.43;;;-0.50;99.90;-1.30;100898;;;;562424;251;24103;-78
2023/01/26 06:20:34;;;;;;;32.33;21.10;;;-0.50;99.90;-1.20;100888;;;;557645;251;35363;-78
2023/01/26 06:23:02;;;;;;;25.47;11.33;;;-0.50;99.90;-1.20;100894;;;;562506;250;24086;-78
2023/01/26 06:25:30;;;;;;;18.30;10.73;;;-0.50;99.90;-1.20;100903;;;;562333;251;24106;-79
2023/01/26 06:27:57;;;;;;;24.43;16.87;;;-0.50;99.90;-1.20;100900;;;;562507;251;24077;-82
2023/01/26 06:30:26;;;;;;;28.80;18.10;;;-0.50;99.90;-1.30;100900;;;;570845;249;24139;-84
2023/01/26 06:32:53;;;;;;;30.87;19.50;;;-0.50;99.90;-1.30;100907;;;;571252;250;24087;-80
2023/01/26 06:35:21;;;;;;;30.10;18.50;;;-0.50;99.90;-1.30;100892;;;;563415;250;24147;-80
2023/01/26 06:37:50;;;;;;;29.97;18.93;;;-0.50;99.90;-1.30;100894;;;;563485;249;24131;-80
2023/01/26 06:40:17;;;;;;;30.63;20.10;;;-0.50;99.90;-1.30;100895;;;;572794;249;25129;-80
2023/01/26 06:42:55;;;;;;;35.47;20.87;;;-0.50;99.90;-1.30;100886;;;;562914;251;24178;-79
2023/01/26 06:45:19;;;;;;;32.73;20.97;;;-0.50;99.90;-1.30;100883;;;;562886;251;24090;-79
2023/01/26 06:47:47;;;;;;;33.90;21.77;;;-0.50;99.90;-1.30;100888;;;;571221;245;24105;-79
2023/01/26 06:50:15;;;;;;;38.40;22.77;;;-0.50;99.90;-1.30;100892;;;;563058;251;25114;-79
2023/01/26 06:52:43;;;;;;;29.67;19.60;;;-0.50;99.90;-1.30;100891;;;;571263;250;24112;-82
2023/01/26 06:55:14;;;;;;;33.37;19.97;;;-0.50;99.90;-1.30;100905;;;;562495;251;24128;-80
2023/01/26 06:57:42;;;;;;;34.30;21.80;;;-0.50;99.90;-1.20;100894;;;;562140;245;24124;-82
2023/01/26 07:00:10;;;;;;;35.37;21.07;;;-0.50;99.90;-1.20;100887;;;;562630;251;24102;-80
2023/01/26 07:02:41;;;;;;;34.67;21.17;;;-0.50;99.90;-1.20;100883;;;;562729;251;24087;-78
2023/01/26 07:05:10;;;;;;;35.70;22.67;;;-0.50;99.90;-1.30;100884;;;;562584;250;24120;-78
2023/01/26 07:07:38;;;;;;;35.27;21.20;;;-0.50;99.90;-1.20;100880;;;;562898;248;24090;-78
2023/01/26 07:10:05;;;;;;;35.13;23.03;;;-0.50;99.90;-1.30;100891;;;;562379;251;24084;-78
2023/01/26 07:12:43;;;;;;;39.20;26.30;;;-0.50;99.90;-1.20;100884;;;;562263;251;24096;-78
2023/01/26 07:15:11;;;;;;;35.80;22.77;;;-0.50;99.90;-1.20;100887;;;;562416;251;24084;-80
2023/01/26 07:17:39;;;;;;;37.53;24.95;;;-0.50;99.90;-1.20;100879;;;;557405;251;35423;-78
2023/01/26 07:20:06;;;;;;;22.17;11.37;;;-0.40;99.90;-1.10;100884;;;;570994;249;24127;-78
2023/01/26 07:22:34;;;;;;;30.60;13.00;;;-0.40;99.90;-1.10;100883;;;;562220;250;24092;-84
2023/01/26 07:25:02;;;;;;;29.70;15.67;;;-0.30;99.90;-1.00;100878;;;;562772;251;24075;-81
2023/01/26 07:27:30;;;;;;;30.33;19.17;;;-0.20;99.90;-1.00;100878;;;;562824;251;24085;-82
2023/01/26 07:29:58;;;;;;;29.43;18.67;;;-0.20;99.90;-0.90;100880;;;;562750;251;24083;-78
2023/01/26 07:32:27;;;;;;;32.40;20.87;;;0.00;99.90;-0.80;100876;;;;562747;251;24132;-82
2023/01/26 07:34:55;;;;;;;38.07;22.83;;;-0.10;99.90;-0.80;100888;;;;562359;250;24087;-81
2023/01/26 07:37:23;;;;;;;36.73;21.20;;;0.00;99.90;-0.70;100879;;;;562905;251;24118;-82
2023/01/26 07:39:51;;;;;;;36.63;21.73;;;0.10;99.90;-0.70;100878;;;;562707;251;24130;-78
2023/01/26 07:42:19;;;;;;;33.13;20.50;;;0.10;99.90;-0.60;100885;;;;571322;249;24099;-78
2023/01/26 07:44:46;;;;;;;32.97;21.17;;;0.20;99.90;-0.60;100874;;;;571289;249;24127;-80
2023/01/26 07:47:14;;;;;;;31.37;18.97;;;0.20;99.90;-0.50;100867;;;;572466;245;24141;-83
2023/01/26 07:49:42;;;;;;;33.80;18.80;;;0.30;99.90;-0.50;100871;;;;563900;249;25103;-81
2023/01/26 07:52:11;;;;;;;33.03;19.23;;;0.40;99.90;-0.40;100878;;;;572220;249;24071;-79
2023/01/26 07:54:40;;;;;;;36.23;20.70;;;0.40;99.90;-0.40;100864;;;;572182;249;24088;-79
2023/01/26 07:57:08;;;;;;;29.47;19.47;;;0.40;99.90;-0.40;100867;;;;571957;249;24143;-79
2023/01/26 07:59:36;;;;;;;34.60;18.03;;;0.40;99.90;-0.30;100859;;;;571574;249;25172;-79
2023/01/26 08:02:04;;;;;;;34.80;18.60;;;0.50;99.90;-0.30;100849;;;;571476;249;24082;-78
2023/01/26 08:04:32;;;;;;;58.60;20.57;;;0.50;99.90;-0.20;100850;;;;571190;246;24092;-78
2023/01/26 08:07:00;;;;;;;31.30;14.47;;;0.60;99.90;-0.10;100866;;;;571238;249;24076;-80
2023/01/26 08:09:28;;;;;;;41.77;15.40;;;0.70;99.90;-0.10;100859;;;;562620;251;24088;-81
2023/01/26 08:11:59;;;;;;;24.83;12.53;;;0.70;99.90;0.00;100849;;;;571241;245;24148;-80
2023/01/26 08:14:27;;;;;;;28.57;13.50;;;0.80;99.90;0.00;100856;;;;571049;246;24134;-81
2023/01/26 08:16:55;;;;;;;20.63;10.43;;;0.80;99.90;0.00;100851;;;;571544;249;25163;-79
2023/01/26 08:19:23;;;;;;;22.93;11.53;;;0.90;99.90;0.10;100846;;;;562629;250;24087;-79
2023/01/26 08:21:52;;;;;;;29.33;11.60;;;0.90;99.90;0.10;100844;;;;571016;249;24099;-77
2023/01/26 08:24:18;;;;;;;26.17;13.33;;;0.90;99.90;0.20;100845;;;;570892;251;24097;-79
2023/01/26 08:26:46;;;;;;;27.17;12.93;;;1.00;99.90;0.20;100832;;;;570904;245;24136;-79
2023/01/26 08:29:14;;;;;;;25.40;11.80;;;1.00;99.90;0.30;100844;;;;562672;251;24091;-81
2023/01/26 08:31:42;;;;;;;27.90;12.33;;;1.10;99.90;0.30;100850;;;;570887;249;24080;-78
2023/01/26 08:34:10;;;;;;;28.90;12.33;;;1.10;99.90;0.30;100836;;;;570831;245;24098;-78
2023/01/26 08:36:38;;;;;;;37.37;13.00;;;1.10;99.90;0.30;100839;;;;562791;251;24111;-79
2023/01/26 08:39:09;;;;;;;26.43;13.37;;;1.10;99.90;0.40;100852;;;;562801;250;24082;-80
2023/01/26 08:41:34;;;;;;;26.60;13.13;;;1.10;99.90;0.40;100846;;;;562669;251;24088;-79
2023/01/26 08:44:02;;;;;;;27.07;12.70;;;1.20;99.90;0.40;100851;;;;571366;246;24072;-79
2023/01/26 08:46:30;;;;;;;23.93;11.33;;;1.20;99.90;0.50;100852;;;;571457;248;24079;-82
2023/01/26 08:48:57;;;;;;;28.17;11.37;;;1.20;99.90;0.60;100855;;;;562911;251;24122;-80
2023/01/26 08:51:25;;;;;;;23.67;10.83;;;1.30;99.90;0.60;100844;;;;562881;251;24083;-84
2023/01/26 08:53:53;;;;;;;25.07;11.23;;;1.40;99.90;0.70;100844;;;;571342;245;24078;-81
2023/01/26 08:56:22;;;;;;;29.67;11.50;;;1.60;99.90;0.80;100844;;;;571316;245;24095;-79
2023/01/26 08:58:50;;;;;;;19.87;10.77;;;1.50;99.90;0.80;100846;;;;572116;248;24101;-81
2023/01/26 09:01:18;;;;;;;30.13;10.47;;;1.60;99.90;0.90;100844;;;;572015;249;24117;-82
2023/01/26 09:03:46;;;;;;;23.23;11.93;;;1.70;99.90;1.00;100839;;;;571658;245;24097;-82
2023/01/26 09:06:14;;;;;;;23.03;11.67;;;1.70;99.90;1.00;100838;;;;572046;249;24086;-78
2023/01/26 09:08:42;;;;;;;21.10;11.87;;;1.80;99.90;1.00;100838;;;;563210;249;24098;-83
2023/01/26 09:11:11;;;;;;;28.50;15.10;;;1.80;99.90;1.10;100831;;;;563026;250;24093;-77
2023/01/26 09:13:38;;;;;;;22.80;11.53;;;1.80;99.90;1.10;100825;;;;562322;251;24142;-77
2023/01/26 09:16:06;;;;;;;24.80;11.37;;;1.80;99.90;1.10;100826;;;;563109;250;24109;-78
2023/01/26 09:18:35;;;;;;;29.03;13.80;;;1.90;99.90;1.10;100824;;;;562659;251;24084;-78
2023/01/26 09:21:03;;;;;;;24.87;12.77;;;1.80;99.90;1.20;100828;;;;562648;251;24128;-79
2023/01/26 09:23:31;;;;;;;22.70;11.50;;;1.90;99.90;1.20;100821;;;;562621;251;24157;-77
2023/01/26 09:25:59;;;;;;;28.40;11.80;;;1.90;99.90;1.30;100829;;;;562526;250;24135;-78
2023/01/26 09:28:30;;;;;;;25.40;11.23;;;2.00;99.90;1.20;100825;;;;562825;251;24151;-77
2023/01/26 09:30:55;;;;;;;27.57;12.30;;;1.90;99.90;1.20;100823;;;;562410;251;24088;-78
2023/01/26 09:33:24;;;;;;;25.37;13.10;;;1.90;99.90;1.20;100819;;;;562641;251;25253;-78
2023/01/26 09:35:51;;;;;;;20.80;10.73;;;1.90;99.90;1.30;100821;;;;570802;249;24130;-78
2023/01/26 09:38:19;;;;;;;29.37;12.07;;;1.90;99.90;1.30;100833;;;;562837;251;24187;-81
2023/01/26 09:41:21;;;;;;;25.43;11.83;;;2.00;99.90;1.30;100835;;;;552970;255;24145;-76
2023/01/26 09:43:54;;;;;;;20.23;11.30;;;2.00;99.90;1.30;100823;;;;561532;255;24158;-77
2023/01/26 09:46:25;;;;;;;26.10;11.57;;;2.00;99.90;1.30;100818;;;;552380;256;24120;-77
2023/01/26 09:48:59;;;;;;;30.90;11.37;;;2.00;99.90;1.30;100829;;;;552523;256;24125;-81
2023/01/26 09:51:39;;;;;;;20.20;12.57;;;2.00;99.90;1.30;100816;;;;552002;255;24135;-79
2023/01/26 09:54:25;;;;;;;36.60;13.23;;;2.00;99.90;1.30;100832;;;;556190;256;24135;-80
2023/01/26 09:56:53;;;;;;;27.17;13.73;;;2.00;99.90;1.30;100827;;;;561192;255;24114;-78
2023/01/26 09:59:30;;;;;;;25.43;13.60;;;2.10;99.90;1.40;100819;;;;552706;255;24106;-79
2023/01/26 10:02:25;;;;;;;23.00;10.73;;;2.00;99.90;1.40;100816;;;;552174;255;24203;-82
2023/01/26 10:04:53;;;;;;;26.77;11.80;;;2.10;99.90;1.30;100818;;;;541886;255;24138;-79
2023/01/26 10:07:21;;;;;;;28.57;13.03;;;2.00;99.90;1.30;100815;;;;552617;255;24114;-82
2023/01/26 10:09:49;;;;;;;29.13;14.10;;;2.00;99.90;1.30;100816;;;;553572;255;24150;-80
2023/01/26 10:12:23;;;;;;;33.47;11.47;;;2.00;99.90;1.40;100824;;;;562411;255;24135;-77
2023/01/26 10:15:15;;;;;;;32.57;12.90;;;2.10;99.90;1.50;100844;;;;553541;255;24135;-79
2023/01/26 10:17:40;;;;;;;21.97;12.90;;;2.20;99.90;1.60;100831;;;;553966;255;24133;-82
2023/01/26 10:20:08;;;;;;;29.10;12.53;;;2.30;99.90;1.70;100827;;;;553467;255;24132;-79
2023/01/26 10:22:46;;;;;;;28.47;12.17;;;2.50;99.90;1.80;100821;;;;552542;255;24146;-81
2023/01/26 10:25:14;;;;;;;22.83;12.23;;;2.40;99.90;1.80;100805;;;;561102;255;24190;-78
2023/01/26 10:27:44;;;;;;;20.97;10.63;;;2.50;99.90;1.90;100803;;;;552901;255;24179;-81
2023/01/26 10:30:13;;;;;;;22.20;11.13;;;2.50;99.90;1.80;100815;;;;552822;255;24256;-83
2023/01/26 10:32:40;;;;;;;25.07;10.57;;;2.50;99.90;1.70;100813;;;;553313;255;24117;-83
2023/01/26 10:35:17;;;;;;;25.57;10.83;;;2.40;99.90;1.70;100813;;;;547346;256;24114;-84
2023/01/26 10:37:48;;;;;;;32.80;11.90;;;2.40;99.90;1.70;100811;;;;571132;251;24149;-81
2023/01/26 10:40:13;;;;;;;55.37;14.27;;;2.40;99.90;1.60;100814;;;;560815;253;24235;-80
2023/01/26 10:42:41;;;;;;;28.13;11.40;;;2.30;99.90;1.60;100816;;;;552786;256;24184;-80
2023/01/26 10:45:30;;;;;;;26.23;10.80;;;2.30;99.90;1.60;100814;;;;552793;256;24147;-79
2023/01/26 10:48:25;;;;;;;31.40;12.73;;;2.30;99.90;1.60;100813;;;;555143;256;24158;-80
2023/01/26 10:50:53;;;;;;;25.73;10.67;;;2.30;99.90;1.70;100820;;;;552172;256;24124;-80
2023/01/26 10:53:28;;;;;;;27.53;11.50;;;2.40;99.90;1.70;100820;;;;552367;256;24124;-82
2023/01/26 10:56:05;;;;;;;22.13;9.73;;;2.30;99.90;1.70;100816;;;;552820;255;24118;-78
2023/01/26 10:58:52;;;;;;;31.33;11.50;;;2.30;99.90;1.70;100816;;;;562385;250;24076;-79
2023/01/26 11:01:26;;;;;;;29.43;10.03;;;2.30;99.90;1.60;100813;;;;552410;256;24198;-80
2023/01/26 11:04:06;;;;;;;27.03;11.27;;;2.30;99.90;1.60;100809;;;;551504;256;24160;-82
2023/01/26 11:06:34;;;;;;;23.33;10.37;;;2.30;99.90;1.60;100817;;;;552145;256;24214;-83
2023/01/26 11:09:14;;;;;;;22.17;10.43;;;2.20;99.90;1.60;100817;;;;560090;256;24162;-83
2023/01/26 11:11:41;;;;;;;27.63;11.83;;;2.20;99.90;1.50;100811;;;;560221;254;24187;-81
2023/01/26 11:14:15;;;;;;;27.27;11.67;;;2.20;99.90;1.50;100806;;;;551883;256;24141;-78
2023/01/26 11:17:08;;;;;;;21.93;10.87;;;2.20;99.90;1.50;100806;;;;551900;256;24137;-78
2023/01/26 11:19:48;;;;;;;23.93;10.27;;;2.20;99.90;1.60;100806;;;;552540;255;24150;-83
2023/01/26 11:22:22;;;;;;;18.80;10.40;;;2.20;99.90;1.60;100803;;;;553499;255;24126;-79
2023/01/26 11:24:56;;;;;;;30.40;12.53;;;2.30;99.90;1.60;100807;;;;562448;251;24107;-81
2023/01/26 11:27:39;;;;;;;24.23;10.90;;;2.30;99.90;1.60;100803;;;;552364;255;24146;-80
2023/01/26 11:30:27;;;;;;;31.43;10.97;;;2.30;99.90;1.60;100793;;;;552644;255;24150;-84
2023/01/26 11:33:07;;;;;;;30.63;12.83;;;2.30;99.90;1.60;100785;;;;552586;255;24120;-80
2023/01/26 11:35:53;;;;;;;31.67;10.90;;;2.30;99.90;1.60;100785;;;;560257;255;24116;-78
2023/01/26 11:38:30;;;;;;;23.60;10.93;;;2.30;99.90;1.70;100793;;;;552405;255;24116;-78
2023/01/26 11:41:19;;;;;;;28.20;9.17;;;2.30;99.90;1.70;100792;;;;560751;254;24113;-80
2023/01/26 11:44:11;;;;;;;24.83;10.40;;;2.30;99.90;1.70;100792;;;;551321;256;25220;-79
2023/01/26 11:46:51;;;;;;;23.93;11.67;;;2.30;99.90;1.70;100790;;;;576340;245;24094;-82
2023/01/26 11:49:32;;;;;;;24.37;10.73;;;2.30;99.90;1.70;100782;;;;576682;245;24075;-80
2023/01/26 11:52:19;;;;;;;34.80;17.60;;;2.40;99.90;1.70;100766;;;;555493;252;35437;-83
2023/01/26 11:55:18;;;;;;;32.20;14.10;;;2.40;99.90;1.80;100765;;;;561021;252;24121;-82
2023/01/26 11:58:13;;;;;;;28.67;13.53;;;2.40;99.90;1.80;100763;;;;551493;252;24176;-80